Time;durP1;ratioP1;P1;durP2;ratioP2;P2;SDS_P1;SDS_P2;PMS_P1;PMS_P2;Temp;Humidity;BMP_temperature;BMP_pressure;BME280_temperature;BME280_humidity;BME280_pressure;Samples;Min_cycle;Max_cycle;Signal;HPM_P1;HPM_P2
2022/03/10 00:00:22;;;;;;;21.63;13.97;;;5.20;36.70;;;5.78;34.12;98317.81;6233722;23;20016;-39
2022/03/10 00:02:49;;;;;;;25.13;13.30;;;5.20;36.80;;;5.73;34.05;98315.50;6236109;23;20310;-39
2022/03/10 00:05:20;;;;;;;24.57;14.43;;;5.20;36.90;;;5.71;34.49;98319.22;6234845;23;20012;-39
2022/03/10 00:07:48;;;;;;;28.67;14.30;;;5.10;37.10;;;5.68;34.57;98311.50;6234467;23;20210;-39
2022/03/10 00:10:16;;;;;;;25.23;13.60;;;5.10;37.00;;;5.67;34.65;98326.53;6208072;23;20016;-39
2022/03/10 00:12:52;;;;;;;22.60;13.33;;;5.10;36.90;;;5.67;34.37;98320.41;6235647;23;20019;-39
2022/03/10 00:15:23;;;;;;;25.57;13.70;;;5.10;37.20;;;5.64;33.91;98332.06;6235094;23;20187;-39
2022/03/10 00:17:52;;;;;;;26.40;13.20;;;5.10;37.10;;;5.62;34.91;98331.31;6245481;23;20326;-39
2022/03/10 00:20:22;;;;;;;26.13;14.03;;;5.10;37.20;;;5.61;34.17;98332.25;6233447;23;20016;-39
2022/03/10 00:22:52;;;;;;;24.70;14.17;;;5.10;37.10;;;5.60;34.91;98333.22;6234174;23;20317;-39
2022/03/10 00:25:21;;;;;;;23.03;11.90;;;5.10;37.00;;;5.61;34.48;98337.56;6233874;23;20016;-39
2022/03/10 00:27:50;;;;;;;24.47;13.10;;;5.10;37.00;;;5.61;34.35;98334.06;6235000;23;20020;-39
2022/03/10 00:30:19;;;;;;;23.83;13.40;;;5.10;37.00;;;5.62;34.36;98341.88;6234740;23;20019;-39
2022/03/10 00:32:51;;;;;;;23.33;12.50;;;5.10;37.10;;;5.60;34.57;98338.50;6235737;23;20012;-39
2022/03/10 00:35:23;;;;;;;23.30;12.60;;;5.10;37.30;;;5.59;34.75;98341.25;6234695;23;20213;-39
2022/03/10 00:37:58;;;;;;;21.60;11.90;;;5.10;37.30;;;5.56;34.40;98339.69;6219454;23;20241;-39
2022/03/10 00:40:28;;;;;;;24.90;14.17;;;5.10;37.30;;;5.56;35.00;98344.13;6232726;23;20019;-39
2022/03/10 00:42:56;;;;;;;23.17;13.03;;;5.00;37.20;;;5.53;35.14;98347.84;6236104;23;20024;-39
2022/03/10 00:45:28;;;;;;;21.57;12.17;;;5.00;37.20;;;5.54;35.01;98346.88;6208675;23;20509;-39
2022/03/10 00:47:56;;;;;;;22.63;12.60;;;5.00;37.30;;;5.52;35.11;98352.28;6233825;23;20023;-39
2022/03/10 00:50:24;;;;;;;20.90;13.20;;;5.00;37.50;;;5.50;35.40;98345.41;6234309;23;20012;-39
2022/03/10 00:52:52;;;;;;;19.77;12.63;;;4.90;37.70;;;5.48;34.53;98342.03;6235544;23;20026;-39
2022/03/10 00:55:20;;;;;;;23.80;13.37;;;4.90;37.70;;;5.47;34.89;98343.00;6234984;23;20012;-39
2022/03/10 00:57:49;;;;;;;22.27;13.40;;;4.90;37.60;;;5.46;34.53;98341.31;6233215;23;20016;-39
2022/03/10 01:00:19;;;;;;;20.17;12.43;;;4.90;37.70;;;5.41;35.31;98339.00;6233671;23;20016;-39
2022/03/10 01:02:46;;;;;;;23.97;12.57;;;4.80;37.60;;;5.36;34.88;98343.78;6235423;23;20024;-39
2022/03/10 01:05:15;;;;;;;24.17;14.03;;;4.70;37.70;;;5.35;34.50;98342.09;6233203;23;20050;-39
2022/03/10 01:07:42;;;;;;;22.87;12.43;;;4.80;37.60;;;5.31;34.97;98344.13;6233948;23;20175;-39
2022/03/10 01:10:14;;;;;;;19.47;11.70;;;4.70;37.70;;;5.26;35.03;98337.50;6235486;23;20041;-39
2022/03/10 01:12:45;;;;;;;20.67;12.97;;;4.70;37.90;;;5.24;34.93;98345.50;6234955;23;20018;-39
2022/03/10 01:15:24;;;;;;;22.37;11.43;;;4.60;37.70;;;5.23;34.68;98338.53;6234299;23;20038;-39
2022/03/10 01:17:57;;;;;;;22.23;12.13;;;4.70;37.60;;;5.24;35.42;98332.31;6244314;23;20199;-39
2022/03/10 01:20:26;;;;;;;21.57;12.77;;;4.70;37.40;;;5.26;35.26;98334.84;6233932;23;20415;-39
2022/03/10 01:22:54;;;;;;;23.07;13.20;;;4.70;37.30;;;5.28;34.67;98328.50;6207573;23;20027;-39
2022/03/10 01:25:22;;;;;;;27.13;14.27;;;4.80;37.10;;;5.29;34.64;98335.47;6233205;23;20027;-39
2022/03/10 01:27:50;;;;;;;22.07;12.57;;;4.80;37.00;;;5.31;34.93;98330.06;6235128;23;20023;-39
2022/03/10 01:30:18;;;;;;;21.57;12.13;;;4.80;36.90;;;5.33;34.86;98330.78;6207390;23;20029;-39
2022/03/10 01:32:47;;;;;;;25.17;12.43;;;4.90;36.80;;;5.33;34.35;98326.38;6208059;23;20018;-39
2022/03/10 01:35:16;;;;;;;22.77;12.40;;;4.90;36.70;;;5.34;34.51;98327.22;6233979;23;20020;-39
2022/03/10 01:37:44;;;;;;;21.37;13.00;;;4.90;36.70;;;5.37;34.16;98324.34;6232560;23;20025;-39
2022/03/10 01:40:18;;;;;;;21.30;12.33;;;4.90;36.70;;;5.38;34.32;98333.94;6233735;23;20020;-39
2022/03/10 01:42:47;;;;;;;25.42;12.50;;;4.90;36.80;;;5.37;34.65;98332.28;6218627;23;20016;-39
2022/03/10 01:45:16;;;;;;;23.77;12.93;;;4.90;36.80;;;5.37;35.38;98326.13;6234777;23;20023;-39
2022/03/10 01:47:44;;;;;;;24.07;13.33;;;4.90;36.90;;;5.36;34.45;98332.38;6233621;23;20351;-39
2022/03/10 01:50:14;;;;;;;22.13;12.50;;;4.80;36.80;;;5.33;34.67;98329.00;6232302;23;20012;-39
2022/03/10 01:52:44;;;;;;;22.27;12.03;;;4.80;36.90;;;5.32;34.45;98334.41;6235769;23;20030;-39
2022/03/10 01:55:12;;;;;;;23.20;12.17;;;4.80;37.00;;;5.30;34.84;98329.22;6208245;23;20018;-39
2022/03/10 01:57:43;;;;;;;25.13;12.37;;;4.70;37.00;;;5.27;35.34;98325.97;6235030;23;20012;-39
2022/03/10 02:00:14;;;;;;;24.23;11.87;;;4.70;37.30;;;5.21;35.16;98323.75;6209958;23;20024;-39
2022/03/10 02:02:42;;;;;;;25.60;13.90;;;4.60;37.50;;;5.17;34.49;98322.31;6244934;23;20713;-39
2022/03/10 02:05:11;;;;;;;27.10;14.27;;;4.50;37.70;;;5.11;35.01;98327.06;6235121;23;20019;-39
2022/03/10 02:10:28;;;;;;;26.60;14.63;;;4.40;38.20;;;5.00;34.99;98323.50;6222780;23;20034;-39
2022/03/10 02:12:57;;;;;;;25.70;14.13;;;4.30;38.40;;;4.96;34.57;98325.50;6236217;23;20724;-39
2022/03/10 02:18:19;;;;;;;26.43;13.90;;;4.20;38.60;;;4.86;35.21;98329.78;6236027;23;20020;-39
2022/03/10 02:20:47;;;;;;;23.63;13.77;;;4.10;38.80;;;4.78;35.06;98322.41;6234115;23;20034;-39
2022/03/10 02:23:17;;;;;;;21.10;12.97;;;4.00;38.90;;;4.73;35.97;98322.72;6236677;23;20023;-39
2022/03/10 02:25:45;;;;;;;22.80;12.90;;;4.00;39.20;;;4.68;35.54;98331.91;6236432;23;20053;-39
2022/03/10 02:28:18;;;;;;;24.47;12.83;;;3.90;39.30;;;4.63;35.89;98323.47;6235121;23;20042;-39
2022/03/10 02:30:46;;;;;;;23.90;12.90;;;3.90;39.40;;;4.60;35.41;98331.63;6235761;23;20310;-39
2022/03/10 02:33:14;;;;;;;19.93;12.70;;;3.90;39.60;;;4.57;35.99;98324.75;6209144;23;20012;-39
2022/03/10 02:35:41;;;;;;;23.13;13.53;;;3.90;39.60;;;4.59;35.87;98328.13;6235631;23;20352;-39
2022/03/10 02:38:18;;;;;;;21.30;11.87;;;4.00;39.20;;;4.62;36.08;98320.00;6235942;23;20027;-39
2022/03/10 02:40:49;;;;;;;23.20;11.60;;;4.10;39.10;;;4.68;36.11;98318.72;6245645;23;20016;-39
2022/03/10 02:43:19;;;;;;;21.43;12.40;;;4.20;38.80;;;4.73;35.95;98311.34;6246459;23;20051;-39
2022/03/10 02:45:49;;;;;;;20.73;11.17;;;4.20;38.70;;;4.75;35.77;98314.72;6236027;23;20390;-39
2022/03/10 02:48:18;;;;;;;21.80;11.10;;;4.30;38.50;;;4.79;36.01;98325.88;6234265;23;20221;-39
2022/03/10 02:50:46;;;;;;;21.20;11.60;;;4.40;38.20;;;4.74;35.75;98316.50;6234594;23;20012;-39
2022/03/10 02:53:16;;;;;;;21.27;11.80;;;4.60;37.80;;;4.84;35.99;98331.69;6235058;23;20012;-39
2022/03/10 02:55:44;;;;;;;18.53;10.70;;;4.60;37.90;;;4.87;36.29;98331.47;6235077;23;20020;-39
2022/03/10 02:58:12;;;;;;;15.70;10.80;;;4.60;38.00;;;4.96;35.91;98335.22;6208289;23;20307;-39
2022/03/10 03:00:40;;;;;;;20.33;10.10;;;4.60;38.00;;;4.97;35.76;98332.50;6235136;23;20206;-39
2022/03/10 03:03:09;;;;;;;16.90;10.67;;;4.70;38.00;;;5.00;36.14;98329.66;6236736;23;20016;-39
2022/03/10 03:05:37;;;;;;;18.87;10.77;;;4.70;38.00;;;5.03;36.07;98337.34;6235175;23;20024;-39
2022/03/10 03:08:06;;;;;;;18.47;10.93;;;4.70;38.00;;;5.05;35.85;98339.88;6235271;23;20028;-38
2022/03/10 03:10:36;;;;;;;19.13;10.07;;;4.60;37.80;;;5.05;36.09;98337.22;6235097;23;20145;-39
2022/03/10 03:13:06;;;;;;;16.87;10.83;;;4.60;37.80;;;5.05;35.68;98335.44;6246393;23;20020;-39
2022/03/10 03:15:34;;;;;;;22.00;11.43;;;4.60;37.90;;;5.06;35.41;98342.41;6235206;23;20018;-39
2022/03/10 03:18:02;;;;;;;21.40;12.20;;;4.70;37.90;;;5.07;34.98;98343.25;6235711;23;20209;-39
2022/03/10 03:20:30;;;;;;;19.50;10.57;;;4.60;37.80;;;5.06;35.65;98339.75;6235122;23;20063;-39
2022/03/10 03:22:58;;;;;;;25.23;12.33;;;4.60;37.80;;;5.01;35.30;98339.25;6235492;23;20047;-39
2022/03/10 03:25:26;;;;;;;16.43;10.03;;;4.70;37.70;;;4.95;35.54;98344.97;6236347;23;20024;-39
2022/03/10 03:27:53;;;;;;;21.33;11.90;;;4.70;37.60;;;4.97;35.93;98345.69;6235729;23;20016;-39
2022/03/10 03:30:21;;;;;;;20.80;10.90;;;4.70;37.70;;;5.00;35.47;98347.25;6207872;23;20042;-39
2022/03/10 03:32:49;;;;;;;20.00;10.90;;;4.60;37.80;;;4.99;36.30;98346.41;6237447;23;20046;-39
2022/03/10 03:35:17;;;;;;;21.53;10.47;;;4.60;38.10;;;5.01;35.32;98347.16;6233324;23;20024;-39
2022/03/10 03:37:45;;;;;;;17.20;10.03;;;4.70;37.80;;;5.02;36.20;98350.63;6234597;23;20018;-39
2022/03/10 03:40:13;;;;;;;17.17;10.93;;;4.60;38.00;;;4.99;35.78;98364.91;6235964;23;20318;-39
2022/03/10 03:42:41;;;;;;;20.67;10.80;;;4.50;38.50;;;4.91;35.76;98360.16;6209156;23;20016;-39
2022/03/10 03:45:10;;;;;;;20.00;10.40;;;4.30;38.90;;;4.86;36.42;98366.72;6235987;23;20015;-39
2022/03/10 03:47:38;;;;;;;21.57;10.93;;;4.20;39.10;;;4.81;36.09;98371.44;6233197;23;20320;-39
2022/03/10 03:50:07;;;;;;;18.13;11.10;;;4.20;39.30;;;4.76;36.33;98370.94;6235499;23;20344;-39
2022/03/10 03:52:35;;;;;;;20.80;10.30;;;4.10;39.50;;;4.71;36.07;98369.47;6236952;23;20321;-39
2022/03/10 03:55:08;;;;;;;18.33;10.67;;;4.10;39.40;;;4.69;36.33;98370.50;6233821;23;20031;-39
2022/03/10 03:57:36;;;;;;;17.73;10.70;;;4.00;39.50;;;4.65;36.66;98364.63;6234127;23;20012;-39
2022/03/10 04:00:08;;;;;;;20.97;11.50;;;4.00;39.50;;;4.65;36.65;98361.13;6233739;23;20015;-39
2022/03/10 04:02:36;;;;;;;17.53;10.73;;;4.00;39.60;;;4.63;36.14;98370.94;6244064;23;20020;-39
2022/03/10 04:05:06;;;;;;;19.93;11.37;;;4.00;39.60;;;4.62;35.96;98366.63;6234823;23;20034;-39
2022/03/10 04:07:35;;;;;;;21.57;10.77;;;4.10;39.40;;;4.61;36.51;98367.56;6234620;23;20020;-39
2022/03/10 04:10:05;;;;;;;17.53;10.67;;;4.00;39.70;;;4.57;36.66;98369.56;6234843;23;20346;-39
2022/03/10 04:12:35;;;;;;;22.20;11.60;;;4.00;39.70;;;4.54;36.50;98368.00;6234752;23;20285;-39
2022/03/10 04:15:04;;;;;;;20.63;10.83;;;4.00;39.80;;;4.55;36.21;98374.09;6234119;23;20024;-39
2022/03/10 04:17:32;;;;;;;16.90;10.17;;;4.00;39.80;;;4.52;36.75;98377.81;6233179;23;20016;-39
2022/03/10 04:20:00;;;;;;;20.87;11.00;;;3.90;39.80;;;4.47;36.66;98376.44;6235373;23;20019;-39
2022/03/10 04:22:27;;;;;;;16.30;11.27;;;3.90;40.00;;;4.41;36.44;98376.84;6235268;23;20016;-39
2022/03/10 04:24:55;;;;;;;18.80;10.27;;;3.80;40.40;;;4.36;36.70;98382.44;6234773;23;20023;-39
2022/03/10 04:27:23;;;;;;;22.47;10.43;;;3.70;40.60;;;4.33;37.20;98382.66;6232238;23;20024;-39
2022/03/10 04:29:51;;;;;;;20.57;10.37;;;3.70;40.90;;;4.29;36.79;98383.81;6233720;23;20046;-39
2022/03/10 04:32:21;;;;;;;17.53;11.53;;;3.60;41.00;;;4.23;37.38;98371.06;6234606;23;20019;-39
2022/03/10 04:34:49;;;;;;;20.33;10.93;;;3.60;41.20;;;4.17;37.14;98387.25;6234103;23;20210;-39
2022/03/10 04:37:17;;;;;;;27.67;12.03;;;3.40;41.40;;;4.12;36.99;98385.78;6234946;23;20198;-39
2022/03/10 04:39:44;;;;;;;18.97;11.47;;;3.40;42.00;;;4.07;37.30;98379.97;6234108;23;20219;-39
2022/03/10 04:42:12;;;;;;;18.33;8.97;;;3.40;41.20;;;4.04;37.67;98380.19;6234674;23;20022;-39
2022/03/10 04:44:40;;;;;;;20.30;8.97;;;3.50;41.40;;;4.09;37.53;98374.59;6234147;23;20016;-39
2022/03/10 04:47:08;;;;;;;15.97;9.00;;;3.60;41.10;;;4.17;37.29;98374.06;6234072;23;20019;-39
2022/03/10 04:49:36;;;;;;;18.77;8.80;;;3.70;40.90;;;4.21;37.34;98370.31;6207701;23;20023;-39
2022/03/10 04:52:06;;;;;;;18.73;10.53;;;3.80;41.20;;;4.23;37.64;98360.50;6231987;23;20029;-39
2022/03/10 04:54:33;;;;;;;17.80;8.83;;;3.80;40.80;;;4.27;37.48;98361.97;6234078;23;20022;-39
2022/03/10 04:57:01;;;;;;;15.10;8.60;;;3.90;41.10;;;4.30;37.29;98357.34;6235397;23;20050;-39
2022/03/10 04:59:31;;;;;;;14.27;8.13;;;3.90;41.10;;;4.32;37.58;98351.94;6234102;23;20024;-39
2022/03/10 05:01:59;;;;;;;15.80;8.70;;;3.90;40.80;;;4.35;37.73;98349.13;6234300;23;20028;-39
2022/03/10 05:04:28;;;;;;;15.80;8.43;;;4.00;40.80;;;4.36;37.25;98349.94;6233756;23;20016;-39
2022/03/10 05:06:55;;;;;;;15.97;7.70;;;4.00;40.60;;;4.37;37.58;98352.50;6234248;23;20023;-39
2022/03/10 05:09:23;;;;;;;15.20;8.23;;;3.90;40.90;;;4.35;37.90;98349.13;6233252;23;20346;-39
2022/03/10 05:11:51;;;;;;;15.50;8.70;;;3.90;40.80;;;4.34;37.24;98348.28;6235585;23;20020;-39
2022/03/10 05:14:19;;;;;;;14.73;8.70;;;3.90;41.00;;;4.34;37.46;98348.28;6234205;23;20012;-39
2022/03/10 05:16:46;;;;;;;15.47;7.73;;;3.90;41.00;;;4.33;37.40;98341.31;6235279;23;20024;-39
2022/03/10 05:19:14;;;;;;;14.33;9.50;;;3.90;40.90;;;4.34;37.79;98348.28;6233111;23;20031;-39
2022/03/10 05:21:43;;;;;;;14.87;8.30;;;3.90;41.00;;;4.35;37.89;98351.75;6235188;23;20222;-38
2022/03/10 05:24:12;;;;;;;16.13;8.63;;;3.90;40.90;;;4.34;37.74;98345.66;6234621;23;20298;-39
2022/03/10 05:26:39;;;;;;;12.73;7.93;;;3.90;41.00;;;4.37;37.72;98346.38;6236623;23;20024;-39
2022/03/10 05:29:07;;;;;;;11.53;7.37;;;3.90;40.90;;;4.39;37.84;98342.69;6235472;23;20027;-39
2022/03/10 05:31:35;;;;;;;62.57;30.93;;;3.90;41.00;;;4.39;37.43;98340.03;6235154;23;20024;-39
2022/03/10 05:34:03;;;;;;;22.77;16.27;;;3.90;41.00;;;4.37;37.62;98341.94;6235348;23;20310;-39
2022/03/10 05:36:31;;;;;;;21.70;13.03;;;3.90;41.20;;;4.40;37.87;98346.16;6236394;23;20344;-39
2022/03/10 05:38:59;;;;;;;18.40;13.63;;;3.90;41.10;;;4.39;37.38;98342.69;6237159;23;20222;-39
2022/03/10 05:41:27;;;;;;;19.70;14.20;;;3.90;41.40;;;4.39;38.07;98347.13;6237603;23;20038;-39
2022/03/10 05:43:55;;;;;;;32.50;17.90;;;3.90;41.30;;;4.39;38.05;98352.41;6208816;23;20035;-39
2022/03/10 05:46:22;;;;;;;22.77;12.80;;;3.90;41.40;;;4.38;37.85;98350.69;6235148;23;20493;-38
2022/03/10 05:48:51;;;;;;;15.97;9.03;;;3.90;42.00;;;4.39;37.90;98357.66;6235624;23;20229;-39
2022/03/10 05:51:20;;;;;;;16.23;8.20;;;3.90;41.50;;;4.36;38.02;98361.34;6236581;23;20024;-39
2022/03/10 05:53:51;;;;;;;13.73;7.77;;;3.80;41.40;;;4.36;37.78;98355.22;6235438;23;20020;-39
2022/03/10 05:56:18;;;;;;;12.00;7.57;;;3.80;41.40;;;4.35;38.17;98362.31;6246735;23;20020;-39
2022/03/10 05:58:46;;;;;;;16.30;6.93;;;3.90;41.20;;;4.36;38.25;98363.97;6237800;23;20020;-39
2022/03/10 06:01:14;;;;;;;17.93;6.97;;;3.90;41.00;;;4.32;38.08;98371.28;6237780;23;20391;-39
2022/03/10 06:03:43;;;;;;;17.17;11.40;;;4.00;40.70;;;4.35;38.01;98378.13;6237062;23;20023;-39
2022/03/10 06:06:12;;;;;;;18.07;10.43;;;4.00;40.80;;;4.36;38.24;98368.41;6234615;23;20431;-39
2022/03/10 06:08:40;;;;;;;18.07;9.17;;;4.00;41.40;;;4.35;38.13;98378.13;6236179;23;20332;-39
2022/03/10 06:11:09;;;;;;;15.97;9.03;;;3.90;41.40;;;4.32;38.25;98375.69;6235128;23;20012;-39
2022/03/10 06:13:37;;;;;;;20.47;11.10;;;3.80;41.70;;;4.27;38.05;98369.88;6236092;23;20026;-39
2022/03/10 06:16:05;;;;;;;19.43;10.07;;;3.70;41.80;;;4.22;38.48;98370.19;6246416;23;20026;-39
2022/03/10 06:18:33;;;;;;;26.80;14.50;;;3.60;42.10;;;4.15;38.00;98371.56;6234691;23;20026;-39
2022/03/10 06:21:01;;;;;;;29.80;17.87;;;3.50;42.30;;;4.09;38.04;98369.31;6235165;23;20024;-39
2022/03/10 06:23:28;;;;;;;25.80;13.90;;;3.50;42.80;;;4.05;38.26;98373.97;6236136;23;20020;-39
2022/03/10 06:25:56;;;;;;;24.23;13.87;;;3.40;42.30;;;4.01;38.27;98369.81;6237175;23;20026;-39
2022/03/10 06:28:24;;;;;;;23.00;13.73;;;3.40;42.70;;;3.98;38.01;98370.06;6236576;23;20011;-39
2022/03/10 06:30:52;;;;;;;28.50;14.47;;;3.40;42.80;;;3.96;38.23;98368.47;6236061;23;20016;-39
2022/03/10 06:33:20;;;;;;;36.57;17.83;;;3.40;42.80;;;3.94;37.94;98376.47;6234949;23;20038;-39
2022/03/10 06:35:48;;;;;;;18.30;10.50;;;3.40;42.90;;;3.91;38.89;98376.66;6235649;23;20213;-39
2022/03/10 06:38:16;;;;;;;15.87;9.10;;;3.30;43.00;;;3.94;38.79;98379.94;6236355;23;20012;-40
2022/03/10 06:40:44;;;;;;;13.93;8.87;;;3.40;42.70;;;4.03;39.03;98378.50;6236019;23;20306;-40
2022/03/10 06:43:13;;;;;;;17.10;10.30;;;3.60;42.60;;;4.10;38.59;98378.94;6236300;23;20039;-40
2022/03/10 06:45:41;;;;;;;15.23;9.33;;;3.70;42.30;;;4.17;38.98;98384.63;6235744;23;20023;-39
2022/03/10 06:48:10;;;;;;;15.97;9.57;;;3.80;42.90;;;4.22;38.32;98390.44;6235107;23;20046;-39
2022/03/10 06:50:38;;;;;;;17.40;12.17;;;3.90;42.20;;;4.27;38.67;98391.81;6235288;23;20024;-39
2022/03/10 06:53:06;;;;;;;17.63;10.77;;;3.90;42.00;;;4.29;38.69;98389.91;6235440;23;20054;-39
2022/03/10 06:55:34;;;;;;;12.10;8.53;;;4.00;42.10;;;4.36;38.30;98390.34;6235282;23;20016;-39
2022/03/10 06:58:02;;;;;;;14.67;9.23;;;4.00;42.00;;;4.38;39.11;98395.50;6234762;23;20012;-39
2022/03/10 07:00:30;;;;;;;17.47;9.37;;;4.00;42.10;;;4.42;39.15;98397.00;6234333;23;20022;-39
2022/03/10 07:02:58;;;;;;;12.40;8.43;;;4.00;42.10;;;4.46;38.88;98401.09;6235754;23;20034;-39
2022/03/10 07:05:26;;;;;;;13.50;8.10;;;4.10;41.80;;;4.53;38.64;98405.03;6234644;23;20026;-39
2022/03/10 07:07:54;;;;;;;16.47;7.73;;;4.20;41.70;;;4.59;38.68;98391.41;6235535;23;20022;-39
2022/03/10 07:10:25;;;;;;;17.07;8.33;;;4.30;41.60;;;4.63;38.34;98392.88;6233982;23;20334;-39
2022/03/10 07:12:54;;;;;;;12.37;8.27;;;4.30;41.60;;;4.67;38.31;98402.28;6236547;23;20020;-39
2022/03/10 07:15:22;;;;;;;15.27;7.27;;;4.40;41.50;;;4.73;39.15;98393.97;6234565;23;20035;-39
2022/03/10 07:17:52;;;;;;;14.57;8.67;;;4.40;41.40;;;4.79;38.02;98405.88;6235682;23;20618;-39
2022/03/10 07:20:20;;;;;;;15.50;8.10;;;4.50;41.50;;;4.84;38.52;98411.66;6236027;23;20012;-39
2022/03/10 07:22:48;;;;;;;16.80;7.30;;;4.50;41.50;;;4.87;38.37;98419.38;6236624;23;20016;-39
2022/03/10 07:25:16;;;;;;;17.17;8.43;;;4.60;41.50;;;4.90;38.60;98415.66;6233457;23;20221;-39
2022/03/10 07:27:44;;;;;;;19.50;7.30;;;4.60;41.50;;;4.92;37.99;98430.47;6208753;23;20541;-39
2022/03/10 07:30:12;;;;;;;12.87;8.27;;;4.50;41.50;;;4.96;37.88;98432.88;6234473;23;20046;-39
2022/03/10 07:32:40;;;;;;;12.87;8.00;;;4.60;41.50;;;5.00;38.58;98429.06;6237905;23;20026;-40
2022/03/10 07:35:08;;;;;;;17.70;8.53;;;4.60;41.60;;;5.03;38.28;98429.69;6234512;23;20012;-39
2022/03/10 07:37:36;;;;;;;21.67;8.37;;;4.70;41.70;;;5.07;38.19;98439.09;6208277;23;20261;-40
2022/03/10 07:40:05;;;;;;;11.70;7.77;;;4.70;41.90;;;5.11;38.22;98437.91;6235289;23;20012;-39
2022/03/10 07:42:33;;;;;;;12.03;7.77;;;4.80;42.00;;;5.14;39.03;98436.88;6235407;23;20020;-40
2022/03/10 07:45:02;;;;;;;16.03;10.50;;;4.80;42.20;;;5.16;38.62;98434.09;6235042;23;20175;-39
2022/03/10 07:47:30;;;;;;;16.63;8.67;;;4.80;42.20;;;5.18;38.91;98435.72;6235695;23;20024;-39
2022/03/10 07:49:59;;;;;;;15.07;8.90;;;4.90;42.50;;;5.21;39.07;98440.75;6234809;23;20016;-39
2022/03/10 07:52:26;;;;;;;19.17;9.47;;;4.90;42.60;;;5.24;39.09;98437.91;6234225;23;20399;-39
2022/03/10 07:54:54;;;;;;;14.53;8.77;;;4.90;42.60;;;5.27;39.06;98435.06;6234452;23;20042;-39
2022/03/10 07:57:22;;;;;;;13.53;7.90;;;4.90;42.50;;;5.29;39.44;98422.59;6234672;23;20038;-39
2022/03/10 07:59:51;;;;;;;15.27;8.60;;;5.00;42.50;;;5.35;39.07;98431.03;6234038;23;20016;-39
2022/03/10 08:02:21;;;;;;;13.43;8.17;;;5.00;42.50;;;5.40;39.29;98439.47;6235484;23;20225;-39
2022/03/10 08:04:49;;;;;;;15.43;8.13;;;5.10;42.60;;;5.44;39.33;98435.66;6233926;23;20038;-39
2022/03/10 08:07:17;;;;;;;15.87;8.20;;;5.10;42.20;;;5.48;39.57;98431.84;6234860;23;20031;-39
2022/03/10 08:09:47;;;;;;;15.53;8.07;;;5.20;41.80;;;5.57;38.30;98423.25;6234331;23;20294;-39
2022/03/10 08:12:15;;;;;;;19.43;8.97;;;5.30;41.60;;;5.63;39.35;98424.63;6235962;23;20031;-40
2022/03/10 08:14:43;;;;;;;20.70;11.10;;;5.40;43.10;;;5.68;39.52;98425.09;6235143;23;20020;-39
2022/03/10 08:17:11;;;;;;;20.73;10.77;;;5.40;42.70;;;5.71;39.44;98419.63;6234981;23;20020;-39
2022/03/10 08:19:39;;;;;;;16.20;9.67;;;5.50;42.90;;;5.75;39.39;98423.72;6234718;23;20020;-39
2022/03/10 08:22:08;;;;;;;15.20;9.37;;;5.50;42.80;;;5.81;39.31;98428.53;6235935;23;20016;-39
2022/03/10 08:24:36;;;;;;;18.47;9.13;;;5.60;42.50;;;5.86;39.44;98426.41;6233621;23;20176;-39
2022/03/10 08:27:05;;;;;;;19.70;11.07;;;5.60;42.80;;;5.89;39.55;98425.34;6234436;23;20143;-39
2022/03/10 08:29:33;;;;;;;21.50;10.30;;;5.60;43.00;;;5.92;38.78;98428.59;6233858;23;20031;-39
2022/03/10 08:32:01;;;;;;;20.63;10.37;;;5.70;43.00;;;5.97;38.87;98425.69;6234413;23;20024;-39
2022/03/10 08:34:29;;;;;;;18.63;10.33;;;5.70;42.90;;;6.00;39.72;98420.16;6234153;23;20019;-39
2022/03/10 08:36:57;;;;;;;17.13;9.60;;;5.80;42.80;;;6.02;39.01;98422.69;6235107;23;20222;-39
2022/03/10 08:39:25;;;;;;;16.77;10.60;;;5.70;42.70;;;6.04;39.51;98411.03;6234816;23;20020;-39
2022/03/10 08:42:11;;;;;;;16.23;10.63;;;5.80;42.60;;;6.08;38.86;98406.38;6236194;23;20020;-39
2022/03/10 08:44:38;;;;;;;17.60;10.80;;;5.90;43.20;;;6.11;39.47;98404.34;6234671;23;20020;-39
2022/03/10 08:47:06;;;;;;;19.40;11.10;;;5.90;42.60;;;6.17;39.24;98407.50;6234840;23;20012;-39
2022/03/10 08:49:34;;;;;;;17.77;10.93;;;5.90;42.90;;;6.20;39.55;98401.97;6235075;23;20313;-39
2022/03/10 08:52:03;;;;;;;18.57;10.83;;;6.00;42.90;;;6.23;39.69;98399.09;6236062;23;20012;-39
2022/03/10 08:54:30;;;;;;;20.70;11.33;;;6.00;43.00;;;6.28;40.18;98400.44;6234848;23;20433;-39
2022/03/10 08:56:58;;;;;;;18.80;10.70;;;6.10;42.90;;;6.35;39.04;98400.81;6234053;23;20012;-39
2022/03/10 08:59:26;;;;;;;22.60;12.10;;;6.10;42.80;;;6.37;39.31;98400.69;6232175;23;20337;-39
2022/03/10 09:01:54;;;;;;;19.60;11.10;;;6.20;42.70;;;6.42;39.31;98398.56;6233962;23;20022;-39
2022/03/10 09:04:26;;;;;;;16.70;10.77;;;6.20;43.00;;;6.47;39.51;98393.72;6245724;23;20213;-39
2022/03/10 09:06:54;;;;;;;18.33;11.77;;;6.30;43.00;;;6.54;39.54;98402.91;6236065;23;20022;-39
2022/03/10 09:09:21;;;;;;;17.73;11.27;;;6.40;42.80;;;6.62;39.52;98399.66;6235206;23;20020;-39
2022/03/10 09:11:49;;;;;;;21.27;11.47;;;6.40;42.70;;;6.68;39.56;98393.91;6236198;23;20019;-39
2022/03/10 09:14:17;;;;;;;20.63;10.87;;;6.50;42.80;;;6.74;39.08;98388.13;6243098;23;20039;-39
2022/03/10 09:16:46;;;;;;;19.70;10.87;;;6.60;42.50;;;6.80;39.34;98385.00;6251676;23;20012;-39
2022/03/10 09:19:21;;;;;;;18.87;10.00;;;6.70;42.50;;;6.83;39.18;98382.13;6250589;23;20012;-39
2022/03/10 09:21:53;;;;;;;17.87;9.70;;;6.70;42.30;;;6.93;39.33;98374.31;6222743;23;20016;-39
2022/03/10 09:24:32;;;;;;;15.97;8.83;;;6.80;41.90;;;6.98;38.93;98381.88;6149024;23;20026;-39
2022/03/10 09:27:02;;;;;;;11.97;7.93;;;6.90;41.70;;;7.05;38.79;98375.16;6262021;23;20016;-39
2022/03/10 09:29:32;;;;;;;15.13;8.53;;;6.90;41.40;;;7.12;38.71;98373.69;6250515;23;20020;-39
2022/03/10 09:32:00;;;;;;;12.33;9.07;;;7.00;41.40;;;7.17;38.92;98370.69;6251350;23;20337;-39
2022/03/10 09:34:28;;;;;;;14.53;8.10;;;7.10;41.60;;;7.22;38.60;98377.28;6252347;23;20024;-39
2022/03/10 09:36:58;;;;;;;13.83;8.63;;;7.10;41.40;;;7.30;38.87;98380.16;6251817;23;20018;-39
2022/03/10 09:39:27;;;;;;;14.33;8.37;;;7.20;41.20;;;7.34;37.88;98382.59;6251493;23;20317;-39
2022/03/10 09:42:07;;;;;;;10.30;6.73;;;7.30;40.80;;;7.45;38.14;98370.16;6201246;23;20283;-39
2022/03/10 09:45:11;;;;;;;15.60;8.77;;;7.40;40.90;;;7.54;38.62;98378.31;6250708;23;20213;-39
2022/03/10 09:47:50;;;;;;;11.73;7.50;;;7.50;41.20;;;7.59;38.06;98381.44;6251161;23;20020;-39
2022/03/10 09:50:24;;;;;;;16.17;9.27;;;7.50;40.40;;;7.62;38.29;98379.41;6235683;23;20030;-39
2022/03/10 09:52:57;;;;;;;15.37;8.50;;;7.60;40.60;;;7.74;38.17;98376.72;6225351;23;20020;-39
2022/03/10 09:55:26;;;;;;;21.73;9.93;;;7.70;41.60;;;7.80;38.55;98379.69;6252655;23;20286;-39
2022/03/10 09:57:58;;;;;;;14.47;8.07;;;7.70;40.60;;;7.85;37.87;98381.97;6223187;23;20016;-39
2022/03/10 10:00:27;;;;;;;11.13;7.63;;;7.80;40.40;;;7.89;37.83;98378.94;6223107;23;20012;-39
2022/03/10 10:02:55;;;;;;;15.30;9.57;;;7.80;39.90;;;7.99;38.17;98375.53;6249505;23;20016;-39
2022/03/10 10:05:26;;;;;;;11.40;8.63;;;7.90;40.10;;;8.04;37.93;98376.00;6224058;23;20020;-39
2022/03/10 10:08:03;;;;;;;13.50;8.83;;;8.00;40.00;;;8.08;37.70;98374.75;6249577;23;20464;-39
2022/03/10 10:10:34;;;;;;;11.90;7.87;;;8.10;40.20;;;8.13;37.99;98372.56;6249454;23;20333;-39
2022/03/10 10:13:34;;;;;;;12.27;7.67;;;8.10;39.90;;;8.18;37.21;98365.09;6221138;23;20220;-39
2022/03/10 10:16:08;;;;;;;15.27;7.40;;;8.10;39.50;;;8.24;37.53;98359.25;6210401;23;20024;-39
2022/03/10 10:18:39;;;;;;;11.53;7.00;;;8.20;39.20;;;8.32;37.40;98360.41;6260615;23;20221;-39
2022/03/10 10:21:18;;;;;;;12.90;8.10;;;8.20;39.20;;;8.36;37.04;98357.38;6246699;23;20233;-39
2022/03/10 10:23:50;;;;;;;12.33;7.50;;;8.40;39.00;;;8.45;37.33;98350.47;6259093;23;20024;-39
2022/03/10 10:26:20;;;;;;;22.07;9.90;;;8.30;39.30;;;8.47;37.48;98346.75;6251144;23;20047;-39
2022/03/10 10:28:51;;;;;;;15.73;8.33;;;8.40;39.40;;;8.53;37.36;98345.38;6262226;23;20023;-39
2022/03/10 10:31:27;;;;;;;11.83;7.23;;;8.50;39.30;;;8.62;36.57;98339.25;6250650;23;20341;-39
2022/03/10 10:34:09;;;;;;;10.40;6.23;;;8.60;38.50;;;8.73;35.73;98345.47;6256807;23;20019;-39
2022/03/10 10:36:41;;;;;;;7.73;5.20;;;8.70;37.50;;;8.75;36.10;98339.06;6251809;23;20254;-39